Aberdeen, New Jersey
Current Conditions -  °F | °C
As of 1:35 AM on Wednesday 28 Jan 2015 (Local Time) from KLDJ Reporting Station
Clear Clear  
Wind Chill:   Ceiling: Unl
Heat Index: 21°   Visibility: 10mi
Dew Point:   Wind: 13mph
Humidity: 52%   Direction: 330°NNW
Pressure: 29.91"   Gusts: NA
Location:  40.4118°N, 74.2499°W
Report Text: KLDJ 280635Z AUTO 33011KT 10SM CLR M06/M15 A2991 RMK AO2 T10611146
Loading
Personal Weather Stations






























Interactive Weather Map New forecast layout! Learn more

10-Day Weather Forecast

Advertisements
Track Severe Weather on mobile